Aérodrome :
LOGIN :

S'inscrire | Disclaimer

   EN    FR    IT 

 










Légende :    VFR   VFR Marginal   IFR   IFR Intensif   IFR Très Intensif
Visi : 
Plafond : 
>= 8 km
>= 3000ft
5 à 8 km
1000 à 3000 ft
1500m à 5 km
500 à 1000 ft
800 à 1500m
200 à 500 ft
< 800m
< 200 ft
Symboles :   Orages  Brouillard  Fortes neiges  Fortes précipitations  Vent > 20 kt
SIGMETs :   Divers  Orages  Givrage  Turbulence  Onde Orograph.  Cendres Volcan.







- Altitude de l'aérodrome : 963 ft
- Code IATA : TGM


LRTM - Transilvania Târgu Mureş Int.

DERNIER METAR :
  • 220730Z 21011KT 9999 FEW033 16/11 Q1011

METARs EXPIRÉS :
  • 220700Z 21009KT 180V250 9999 FEW030 16/11 Q1011
  • 220630Z 21007KT 9999 FEW012 15/11 Q1011
  • 220600Z 20005KT 9999 SCT010 14/10 Q1012
  • 220530Z 00000KT 9999 SCT008 13/11 Q1012
  • 220500Z VRB01KT 9999 FEW008 12/10 Q1012
  • 220430Z 07003KT 050V110 8000 MIFG FEW006 11/10 Q1012

TAF TAF LRTM
Valide du 22 à 06h jusqu'au 22 à 15h UTC


220500Z 2206/2215 VRB04KT CAVOK
BECMG 2206/2208 22012KT
TEMPO 2210/2215 SCT040CB
PROB40 2212/2215 VRB18KT -TSRA
Pas de NOTAMs connus pour ce terrain.



MET'MAP, la Météo Aéronautique d'un coup d'oeil ! - Copyright ORBIFLY Décembre 2007 - Disclaimer

ORBIFLY MET'MAP TEAM :

Programmation & Développement : Alexandra Zaïnal
Conception & Développement : Baudouin d'Aumeries
Co-Programmation & Développement : Marc-Olivier Méhu
Soutien technique & logistique : Manuel Goepfert

Contact : metmap@orbifly.com




SOURCES & CREDITS :

   NOAA